Kezdőlap
METAR-TAF:

METAR-TAF

Repülőterek :

Mendoza, Argentína

földrajzi szélesség: 32-50S, földrajzi hosszúság: 068-47W, magasság: 705 m

Jelenlegi meteorológiai megfigyelések

A jelentés 17 perccel ezelõtt készült, 17:00 UTC
Nyugati szél 6 kt
Hőmérséklet 11°C
Páratartalom 58%
Légköri nyomás 1035 hPa
Látótávolság 10 km, vagy több
felhőtlen 1500 m magasságban, és nincs gomolyfelhõ

METAR: SAME 191700Z 27006KT CAVOK 11/03 Q1035

Idő: 14:17 (17:17 UTC)

Előrejelzés

A jelentés 6 órával és 17 perccel ezelõtt készült, 11:00 UTC
Az előrejelzés 19-én 12 óra UTC és 20-én 12 óra UTC között érvényes
Déli szél 10 kt
Látótávolság 10 km, vagy több
Szórványos felhőzet 8000 lábon
19-én 18 óra UTC és 19-én 20 óra UTC között fokozatosan kialakuló
Dél-délkeleti szél 5 kt
Látótávolság 10 km, vagy több
Szórványos felhőzet 4000 lábon

TAF: SAME 191100Z 1912/2012 18010KT 9999 SCTR040 SCT080 TX12/1920Z TN02/2010Z BECMG 1918/1920 16005KT 9999 SCT040

Meteorológiai megfigyelések és előrejelzések több, mint 4000 repülőtéren (METAR és TAF jelentéseket).

A térképen piros és sárga pontok jelzik az elérhető meteorológiai állomásokat.

Mozgassa az egeret a pont fölött, hogy megjelenjen az állomás neve.

Azután kattintson az időjárási megfigyelések és előrejelzések megtekintéséhez.

A térkép megváltoztatása: kattintson a fekete keresztel jelölt zöld gombra ráközelítéshez, a vonallal jelölt zöld gombra távolításhoz, vagy a zöld nyilakra a szomszédos térképek eléréséhez.


METAR-TAF: